createdAt,value
2018-09-18T00:10:57.377Z,0.0
2018-09-18T00:23:18.117Z,0.0
2018-09-18T00:35:50.539Z,0.0
2018-09-18T01:13:17.571Z,0.0
2018-09-18T01:26:56.489Z,0.0
2018-09-18T01:39:50.162Z,0.0
2018-09-18T01:52:33.842Z,0.0
2018-09-18T02:15:51.338Z,0.0
2018-09-18T02:27:42.947Z,0.0
2018-09-18T02:39:33.036Z,0.0
2018-09-18T02:51:53.723Z,0.0
2018-09-18T03:05:23.129Z,0.0
2018-09-18T03:26:52.784Z,0.0
2018-09-18T03:37:56.472Z,0.0
2018-09-18T04:01:32.271Z,0.0
2018-09-18T04:12:10.166Z,0.0
2018-09-18T04:22:41.261Z,0.0
2018-09-18T04:34:04.714Z,0.0
2018-09-18T04:44:33.444Z,4.0
2018-09-18T04:54:48.976Z,24.0
2018-09-18T05:05:54.732Z,104.0
2018-09-18T05:16:18.317Z,304.0
2018-09-18T05:27:07.134Z,668.0
2018-09-18T05:37:21.835Z,1060.0
2018-09-18T05:48:10.926Z,1452.0
2018-09-18T05:58:22.995Z,1752.0
2018-09-18T06:08:40.240Z,2020.0
2018-09-18T06:19:06.537Z,2248.0
2018-09-18T06:33:24.123Z,2508.0
2018-09-18T06:44:27.272Z,2724.0
2018-09-18T06:54:40.989Z,2988.0
2018-09-18T07:05:08.062Z,17152.0
2018-09-18T07:15:54.122Z,23808.0
2018-09-18T07:26:27.071Z,28000.0
2018-09-18T07:37:05.523Z,33312.0
2018-09-18T07:47:30.289Z,34560.0
2018-09-18T07:57:44.000Z,35392.0
2018-09-18T08:07:57.956Z,42368.0
2018-09-18T08:18:11.353Z,41216.0
2018-09-18T08:29:02.935Z,47872.0
2018-09-18T08:39:33.594Z,51968.0
2018-09-18T08:49:58.588Z,58112.0
2018-09-18T09:00:28.973Z,60672.0
2018-09-18T09:22:06.167Z,56704.0
2018-09-18T09:33:02.307Z,59776.0
2018-09-18T09:43:32.182Z,65184.0
2018-09-18T10:04:14.341Z,67808.0
2018-09-18T10:14:44.817Z,71872.0
2018-09-18T10:25:07.635Z,76480.0
2018-09-18T10:35:37.952Z,76512.0
2018-09-18T10:45:51.569Z,75424.0
2018-09-18T10:56:05.627Z,79968.0
2018-09-18T11:06:19.893Z,77280.0
2018-09-18T11:17:06.665Z,78208.0
2018-09-18T11:27:17.924Z,76288.0
2018-09-18T11:38:24.295Z,72192.0
2018-09-18T11:59:19.404Z,79328.0
2018-09-18T12:09:51.398Z,70848.0
2018-09-18T12:21:51.338Z,72800.0
2018-09-18T12:33:16.614Z,75008.0
2018-09-18T12:44:24.524Z,74816.0
2018-09-18T13:01:42.647Z,71648.0
2018-09-18T13:13:36.536Z,68224.0
2018-09-18T13:25:19.865Z,64480.0
2018-09-18T13:36:14.529Z,66560.0
2018-09-18T13:47:27.459Z,51424.0
2018-09-18T13:59:23.944Z,50944.0
2018-09-18T14:16:08.883Z,24064.0
2018-09-18T14:28:40.923Z,23520.0
2018-09-18T15:05:55.041Z,43328.0
2018-09-18T15:17:10.903Z,6692.0
2018-09-18T15:27:29.953Z,5940.0
2018-09-18T15:38:18.855Z,5496.0
2018-09-18T15:48:35.663Z,5068.0
2018-09-18T15:59:26.457Z,4620.0
2018-09-18T16:11:05.227Z,3960.0
2018-09-18T16:21:32.717Z,3548.0
2018-09-18T16:32:06.302Z,3116.0
2018-09-18T16:42:20.075Z,2468.0
2018-09-18T16:53:14.437Z,2028.0
2018-09-18T17:03:54.554Z,1484.0
2018-09-18T17:14:10.854Z,1016.0
2018-09-18T17:24:52.852Z,596.0
2018-09-18T17:35:06.518Z,276.0
2018-09-18T17:45:26.484Z,100.0
2018-09-18T17:56:31.929Z,20.0
2018-09-18T18:06:54.478Z,4.0
2018-09-18T18:17:36.221Z,0.0
2018-09-18T18:29:21.300Z,0.0
2018-09-18T18:42:55.211Z,0.0
2018-09-18T19:59:25.109Z,0.0
2018-09-18T21:02:58.713Z,0.0
2018-09-18T21:17:06.048Z,0.0
2018-09-18T21:32:00.044Z,0.0
2018-09-18T21:45:39.323Z,0.0
2018-09-18T21:57:47.601Z,0.0
2018-09-18T22:09:31.291Z,0.0
2018-09-18T22:20:47.541Z,0.0
2018-09-18T22:32:56.072Z,0.0
2018-09-18T22:45:56.216Z,0.0
2018-09-18T22:57:18.871Z,0.0
2018-09-18T23:11:35.073Z,0.0
2018-09-18T23:23:45.670Z,0.0
2018-09-18T23:38:14.869Z,0.0
2018-09-18T23:49:57.869Z,0.0
